Time;durP1;ratioP1;P1;durP2;ratioP2;P2;SDS_P1;SDS_P2;PMS_P1;PMS_P2;Temp;Humidity;BMP_temperature;BMP_pressure;BME280_temperature;BME280_humidity;BME280_pressure;Samples;Min_cycle;Max_cycle;Signal;HPM_P1;HPM_P2
2024/01/20 00:01:50;;;;;;;4.00;1.57;;;4.60;1.00;;;;;;5051456;28;20220;-75
2024/01/20 00:04:15;;;;;;;4.33;1.50;;;4.60;1.00;;;;;;5051402;28;20176;-74
2024/01/20 00:06:41;;;;;;;3.30;1.20;;;;;;;;;;5051371;28;20284;-74
2024/01/20 00:09:08;;;;;;;1.77;1.20;;;4.70;1.00;;;;;;5054431;28;20176;-75
2024/01/20 00:11:34;;;;;;;2.83;1.30;;;4.50;1.00;;;;;;5059891;28;20227;-74
2024/01/20 00:13:59;;;;;;;2.47;1.00;;;4.30;1.00;;;;;;5045354;28;20182;-74
2024/01/20 00:16:25;;;;;;;3.80;1.40;;;4.80;1.00;;;;;;5040888;28;20178;-74
2024/01/20 00:18:51;;;;;;;5.27;1.23;;;4.50;1.00;;;;;;5050277;28;20168;-74
2024/01/20 00:21:16;;;;;;;4.70;1.20;;;4.70;14.90;;;;;;5061126;28;20181;-74
2024/01/20 00:23:42;;;;;;;2.37;1.30;;;4.50;1.00;;;;;;5061064;28;20177;-74
2024/01/20 00:26:07;;;;;;;3.63;1.20;;;4.50;1.00;;;;;;5061627;28;20205;-74
2024/01/20 00:28:33;;;;;;;7.03;1.33;;;4.50;1.00;;;;;;5061460;28;20173;-74
2024/01/20 00:30:59;;;;;;;1.87;1.00;;;4.30;1.00;;;;;;5052026;28;20185;-74
2024/01/20 00:33:25;;;;;;;3.80;1.17;;;4.50;90.40;;;;;;5041437;28;20166;-74
2024/01/20 00:35:51;;;;;;;3.13;1.00;;;4.60;1.00;;;;;;5042826;28;20186;-74
2024/01/20 00:38:17;;;;;;;2.00;1.03;;;4.60;1.00;;;;;;5043306;28;20174;-74
2024/01/20 00:40:43;;;;;;;3.10;1.10;;;4.70;1.00;;;;;;5043600;28;20166;-74
2024/01/20 00:43:10;;;;;;;3.07;1.33;;;5.80;1.00;;;;;;5042238;28;20185;-74
2024/01/20 00:45:36;;;;;;;3.97;1.30;;;4.50;1.00;;;;;;5051535;28;20201;-74
2024/01/20 00:48:02;;;;;;;4.67;1.10;;;5.00;1.00;;;;;;5061951;28;20686;-75
2024/01/20 00:50:27;;;;;;;2.47;1.07;;;5.60;1.00;;;;;;5063174;28;20569;-74
2024/01/20 00:52:53;;;;;;;2.20;1.30;;;5.00;1.00;;;;;;5061227;28;20173;-76
2024/01/20 00:55:19;;;;;;;2.70;0.90;;;4.90;1.00;;;;;;5060612;28;20181;-74
2024/01/20 00:57:45;;;;;;;5.00;1.43;;;;;;;;;;5060132;28;20179;-74
2024/01/20 01:00:11;;;;;;;6.53;1.17;;;4.70;1.00;;;;;;5057403;28;20192;-74
2024/01/20 01:02:38;;;;;;;5.33;1.43;;;4.80;1.00;;;;;;5055976;28;20255;-74
2024/01/20 01:05:05;;;;;;;3.23;1.23;;;4.60;1.00;;;;;;5064105;28;20177;-74
2024/01/20 01:07:34;;;;;;;5.43;1.10;;;4.90;1.00;;;;;;5063985;28;20213;-73
2024/01/20 01:10:01;;;;;;;2.57;1.10;;;;;;;;;;5063792;28;20169;-77
2024/01/20 01:12:27;;;;;;;3.93;0.73;;;4.90;1.00;;;;;;5053000;28;20178;-74
2024/01/20 01:14:52;;;;;;;1.70;0.90;;;4.70;1.00;;;;;;5064693;28;20196;-76
2024/01/20 01:17:18;;;;;;;3.60;0.90;;;;;;;;;;5054340;28;20180;-74
2024/01/20 01:19:44;;;;;;;4.90;1.00;;;4.80;1.00;;;;;;5046194;28;20186;-74
2024/01/20 01:22:10;;;;;;;4.77;1.00;;;4.90;1.00;;;;;;5043046;28;20215;-74
2024/01/20 01:24:37;;;;;;;4.33;0.90;;;4.80;1.00;;;;;;5042390;28;20178;-74
2024/01/20 01:27:04;;;;;;;5.83;0.90;;;5.10;1.00;;;;;;5043009;28;20234;-74
2024/01/20 01:29:29;;;;;;;5.37;0.80;;;5.00;1.00;;;;;;5044678;28;20645;-74
2024/01/20 01:31:55;;;;;;;2.50;1.00;;;5.10;1.00;;;;;;5045316;28;20200;-75
2024/01/20 01:34:21;;;;;;;4.90;0.80;;;5.10;1.00;;;;;;5045380;28;20248;-75
2024/01/20 01:36:46;;;;;;;1.97;0.80;;;4.80;1.00;;;;;;5042957;28;20212;-75
2024/01/20 01:39:12;;;;;;;2.33;0.80;;;5.00;1.00;;;;;;5045483;28;20200;-75
2024/01/20 01:41:37;;;;;;;1.03;0.73;;;5.00;1.00;;;;;;5043471;28;20198;-75
2024/01/20 01:44:03;;;;;;;3.30;0.90;;;4.80;1.00;;;;;;5042269;28;20166;-75
2024/01/20 01:46:30;;;;;;;3.10;1.00;;;4.90;1.00;;;;;;5036579;28;20700;-74
2024/01/20 01:48:56;;;;;;;4.47;0.90;;;4.90;1.00;;;;;;5039776;28;20183;-74
2024/01/20 01:51:22;;;;;;;1.90;0.67;;;5.00;1.00;;;;;;5053651;28;20185;-75
2024/01/20 01:53:49;;;;;;;2.60;0.83;;;4.30;1.00;;;;;;5053723;28;20711;-74
2024/01/20 01:56:15;;;;;;;3.10;1.20;;;5.00;1.00;;;;;;5053478;28;20693;-75
2024/01/20 01:58:45;;;;;;;3.47;0.90;;;4.80;1.00;;;;;;5049510;28;20173;-75
2024/01/20 02:01:10;;;;;;;1.33;0.70;;;4.70;1.00;;;;;;5053567;28;20227;-75
2024/01/20 02:03:36;;;;;;;3.47;0.70;;;4.50;1.00;;;;;;5053705;28;20217;-75
2024/01/20 02:06:02;;;;;;;2.37;0.87;;;4.80;1.00;;;;;;5054179;28;20258;-75
2024/01/20 02:08:28;;;;;;;4.50;1.00;;;4.70;1.00;;;;;;5052419;28;20185;-74
2024/01/20 02:10:54;;;;;;;7.20;1.20;;;4.70;1.00;;;;;;5053549;28;20220;-74
2024/01/20 02:13:21;;;;;;;1.27;0.80;;;4.80;1.00;;;;;;5053278;28;20536;-75
2024/01/20 02:15:47;;;;;;;2.70;0.90;;;4.80;1.00;;;;;;5053088;28;20196;-74
2024/01/20 02:18:12;;;;;;;5.73;1.10;;;4.80;1.00;;;;;;5053083;28;20168;-76
2024/01/20 02:20:38;;;;;;;4.23;1.13;;;4.80;1.00;;;;;;5052858;28;20334;-74
2024/01/20 02:23:04;;;;;;;4.00;1.03;;;;;;;;;;5035102;28;20189;-75
2024/01/20 02:25:30;;;;;;;3.83;1.00;;;4.80;1.00;;;;;;5052824;28;20666;-74
2024/01/20 02:27:56;;;;;;;6.83;1.07;;;;;;;;;;5052718;28;20273;-74
2024/01/20 02:30:22;;;;;;;2.63;0.90;;;4.80;1.00;;;;;;5052506;28;20272;-74
2024/01/20 02:32:48;;;;;;;5.30;1.10;;;;;;;;;;5052755;28;20236;-75
2024/01/20 02:35:16;;;;;;;1.57;0.83;;;5.20;1.00;;;;;;5052478;28;20192;-75
2024/01/20 02:37:41;;;;;;;9.17;1.20;;;5.10;1.00;;;;;;5052418;28;20177;-74
2024/01/20 02:40:08;;;;;;;7.50;0.80;;;4.70;1.00;;;;;;5052702;28;20180;-75
2024/01/20 02:42:33;;;;;;;11.27;1.20;;;5.00;1.00;;;;;;5051731;28;20177;-74
2024/01/20 02:44:59;;;;;;;1.67;0.87;;;4.90;1.00;;;;;;5052261;28;20542;-74
2024/01/20 02:47:25;;;;;;;3.13;0.90;;;4.70;1.00;;;;;;5052001;28;20201;-74
2024/01/20 02:49:51;;;;;;;1.97;0.87;;;;;;;;;;5052134;28;20169;-74
2024/01/20 02:52:16;;;;;;;2.40;1.00;;;4.70;1.00;;;;;;5051640;28;20334;-74
2024/01/20 02:54:42;;;;;;;4.63;1.20;;;4.70;1.00;;;;;;5052146;28;20612;-74
2024/01/20 02:57:08;;;;;;;4.77;1.40;;;4.70;1.00;;;;;;5034078;28;20367;-74
2024/01/20 02:59:33;;;;;;;2.53;1.03;;;4.60;1.00;;;;;;5051926;28;20203;-74
2024/01/20 03:02:02;;;;;;;2.10;0.93;;;5.00;1.00;;;;;;5051416;28;20216;-74
2024/01/20 03:04:28;;;;;;;1.87;0.93;;;4.40;18.50;;;;;;5051811;28;20251;-74
2024/01/20 03:06:53;;;;;;;3.83;1.27;;;4.70;53.80;;;;;;5051388;28;20343;-74
2024/01/20 03:09:19;;;;;;;3.13;1.10;;;;;;;;;;5051843;28;20256;-75
2024/01/20 03:11:45;;;;;;;2.67;0.90;;;4.70;63.40;;;;;;5033062;28;20188;-74
2024/01/20 03:14:11;;;;;;;3.97;1.20;;;4.80;79.60;;;;;;5051318;28;20165;-74
2024/01/20 03:16:38;;;;;;;2.23;0.90;;;4.60;63.30;;;;;;5051362;28;20223;-74
2024/01/20 03:19:04;;;;;;;4.67;1.10;;;4.70;99.90;;;;;;5051352;28;20271;-74
2024/01/20 03:21:30;;;;;;;1.50;0.90;;;4.30;99.90;;;;;;5051427;28;20177;-74
2024/01/20 03:23:55;;;;;;;7.13;1.00;;;4.80;99.70;;;;;;5051663;28;20167;-74
2024/01/20 03:26:21;;;;;;;4.13;1.23;;;4.90;99.90;;;;;;5051549;28;20291;-74
2024/01/20 03:28:48;;;;;;;3.17;0.80;;;5.00;99.90;;;;;;5051502;28;20173;-74
2024/01/20 03:31:14;;;;;;;1.70;0.70;;;5.10;99.90;;;;;;5051598;28;20230;-75
2024/01/20 03:33:40;;;;;;;1.07;0.93;;;;;;;;;;5051316;28;20586;-76
2024/01/20 03:36:05;;;;;;;3.43;0.90;;;4.80;99.90;;;;;;5051806;28;20169;-74
2024/01/20 03:38:31;;;;;;;3.17;0.80;;;;;;;;;;5051564;28;20181;-74
2024/01/20 03:40:57;;;;;;;4.60;0.70;;;4.80;86.40;;;;;;5051713;28;20177;-73
2024/01/20 03:43:23;;;;;;;1.80;0.90;;;;;;;;;;5051461;28;20176;-74
2024/01/20 03:45:49;;;;;;;4.43;0.53;;;5.30;11.90;;;;;;5051367;28;20193;-74
2024/01/20 03:48:15;;;;;;;2.97;0.90;;;;;;;;;;5051318;28;20184;-74
2024/01/20 03:50:41;;;;;;;1.83;0.90;;;;;;;;;;5051280;28;20177;-74
2024/01/20 03:53:07;;;;;;;5.67;0.80;;;5.30;26.10;;;;;;5050783;28;20268;-74
2024/01/20 03:55:33;;;;;;;2.30;0.90;;;;;;;;;;5051038;28;20220;-74
2024/01/20 03:57:59;;;;;;;3.80;1.10;;;;;;;;;;5050983;28;20227;-74
2024/01/20 04:00:25;;;;;;;3.83;1.00;;;5.80;1.00;;;;;;5050924;28;20181;-73
2024/01/20 04:02:50;;;;;;;0.93;0.63;;;5.40;1.00;;;;;;5050596;28;20727;-74
2024/01/20 04:05:16;;;;;;;2.23;0.80;;;5.40;1.00;;;;;;5050588;28;20663;-73
2024/01/20 04:07:42;;;;;;;1.37;0.80;;;;;;;;;;5051233;28;20232;-73
2024/01/20 04:10:09;;;;;;;4.70;0.80;;;5.30;1.00;;;;;;5050653;28;20264;-74
2024/01/20 04:12:37;;;;;;;0.90;0.67;;;6.10;1.00;;;;;;5051347;28;20200;-73
2024/01/20 04:15:03;;;;;;;3.90;1.00;;;5.80;1.00;;;;;;5033383;28;20208;-73
2024/01/20 04:17:29;;;;;;;8.93;1.33;;;6.00;1.00;;;;;;5059174;28;20537;-73
2024/01/20 04:19:55;;;;;;;1.37;0.63;;;5.30;1.00;;;;;;5057002;28;20264;-73
2024/01/20 04:22:21;;;;;;;3.03;0.80;;;;;;;;;;5050949;28;20178;-74
2024/01/20 04:24:47;;;;;;;4.30;1.13;;;;;;;;;;5050673;28;20188;-73
2024/01/20 04:27:13;;;;;;;3.33;0.87;;;;;;;;;;5037886;28;20197;-73
2024/01/20 04:29:39;;;;;;;0.87;0.70;;;;;;;;;;5051458;28;20173;-74
2024/01/20 04:32:05;;;;;;;0.63;0.60;;;5.70;1.00;;;;;;5035428;28;20189;-74
2024/01/20 04:34:30;;;;;;;7.90;1.00;;;6.50;1.00;;;;;;5054770;28;20181;-74
2024/01/20 04:36:56;;;;;;;3.53;0.97;;;;;;;;;;5054716;28;20202;-74
2024/01/20 04:39:23;;;;;;;4.23;0.97;;;;;;;;;;5054380;28;20173;-74
2024/01/20 04:41:48;;;;;;;2.50;0.90;;;5.60;1.00;;;;;;5054510;28;20664;-74
2024/01/20 04:44:14;;;;;;;4.63;1.13;;;5.40;1.00;;;;;;5054088;28;20260;-74
2024/01/20 04:46:39;;;;;;;4.23;0.77;;;5.70;1.00;;;;;;5054076;28;20237;-74
2024/01/20 04:49:05;;;;;;;4.17;1.00;;;5.30;1.00;;;;;;5036469;28;20177;-74
2024/01/20 04:51:31;;;;;;;3.50;0.70;;;;;;;;;;5036342;28;20177;-74
2024/01/20 04:53:57;;;;;;;4.37;1.10;;;5.30;1.00;;;;;;5054225;28;20177;-74
2024/01/20 04:56:22;;;;;;;2.80;0.63;;;5.70;1.00;;;;;;5054042;28;20181;-74
2024/01/20 04:58:55;;;;;;;2.03;0.60;;;5.80;1.00;;;;;;5054315;28;20173;-74
2024/01/20 05:01:21;;;;;;;2.33;1.00;;;5.40;1.00;;;;;;5053969;28;20268;-74
2024/01/20 05:03:46;;;;;;;0.50;0.50;;;5.50;1.00;;;;;;5054018;28;20714;-74
2024/01/20 05:06:13;;;;;;;13.63;1.20;;;5.70;1.00;;;;;;5053520;28;20209;-73
2024/01/20 05:08:38;;;;;;;5.43;0.73;;;5.60;1.00;;;;;;5053752;28;20577;-74
2024/01/20 05:11:04;;;;;;;3.90;0.73;;;5.60;1.00;;;;;;5054288;28;20227;-74
2024/01/20 05:13:30;;;;;;;2.83;0.87;;;;;;;;;;5054064;28;20559;-73
2024/01/20 05:15:56;;;;;;;3.23;0.80;;;5.40;1.00;;;;;;5054182;28;20256;-73
2024/01/20 05:18:21;;;;;;;4.70;1.00;;;5.10;1.00;;;;;;5053942;28;20204;-73
2024/01/20 05:20:47;;;;;;;0.70;0.50;;;5.50;1.00;;;;;;5054013;28;20184;-73
2024/01/20 05:23:13;;;;;;;4.73;0.90;;;5.60;99.90;;;;;;5054226;28;20260;-73
2024/01/20 05:25:38;;;;;;;3.90;1.00;;;5.50;99.90;;;;;;5053880;28;20583;-73
2024/01/20 05:28:04;;;;;;;1.97;0.77;;;5.50;99.90;;;;;;5053745;28;20261;-73
2024/01/20 05:30:30;;;;;;;6.73;0.87;;;5.60;99.90;;;;;;5053762;28;20173;-73
2024/01/20 05:32:56;;;;;;;3.43;1.10;;;5.60;99.90;;;;;;5036126;28;20570;-74
2024/01/20 05:35:22;;;;;;;1.00;0.77;;;5.00;99.90;;;;;;5039370;28;20268;-73
2024/01/20 05:37:48;;;;;;;5.60;0.80;;;;;;;;;;5060800;28;20188;-73
2024/01/20 05:40:14;;;;;;;2.20;0.63;;;5.60;99.90;;;;;;5061323;28;20264;-73
2024/01/20 05:42:40;;;;;;;2.10;0.73;;;;;;;;;;5040940;28;20304;-73
2024/01/20 05:45:09;;;;;;;2.03;1.00;;;5.70;99.90;;;;;;5055310;28;20239;-74
2024/01/20 05:47:36;;;;;;;8.73;0.93;;;5.50;99.90;;;;;;5054259;28;20219;-74
2024/01/20 05:50:05;;;;;;;6.83;1.30;;;5.50;99.90;;;;;;5053733;28;20231;-74
2024/01/20 05:52:31;;;;;;;4.30;1.00;;;4.10;99.90;;;;;;5053543;28;20173;-74
2024/01/20 05:54:57;;;;;;;2.97;1.00;;;;;;;;;;5053377;28;20658;-74
2024/01/20 05:57:23;;;;;;;6.37;1.33;;;5.80;99.90;;;;;;5053417;28;20170;-74
2024/01/20 05:59:49;;;;;;;4.73;0.70;;;5.80;99.90;;;;;;5053259;28;20181;-73
2024/01/20 06:02:15;;;;;;;2.33;0.83;;;5.60;48.80;;;;;;5053372;28;20229;-74
2024/01/20 06:04:41;;;;;;;2.13;0.90;;;5.80;84.70;;;;;;5051305;28;20177;-74
2024/01/20 06:07:07;;;;;;;12.97;1.40;;;5.60;99.90;;;;;;5053303;28;20663;-74
2024/01/20 06:09:33;;;;;;;3.27;0.90;;;;;;;;;;5053112;28;20173;-73
2024/01/20 06:11:58;;;;;;;4.23;1.20;;;5.40;99.90;;;;;;5045212;28;20260;-74
2024/01/20 06:14:24;;;;;;;11.13;1.10;;;5.30;99.90;;;;;;5046959;28;20179;-74
2024/01/20 06:16:49;;;;;;;6.87;1.53;;;5.40;99.90;;;;;;5052110;28;20230;-73
2024/01/20 06:19:15;;;;;;;4.03;0.90;;;;;;;;;;5032634;28;20755;-73
2024/01/20 06:21:41;;;;;;;4.63;1.00;;;5.00;99.90;;;;;;5035910;28;20204;-73
2024/01/20 06:24:07;;;;;;;4.80;0.90;;;5.50;99.90;;;;;;5052809;28;20628;-73
2024/01/20 06:26:33;;;;;;;1.87;0.60;;;5.90;99.90;;;;;;5052444;28;20235;-73
2024/01/20 06:28:58;;;;;;;6.27;1.30;;;5.70;99.90;;;;;;5052552;28;20188;-74
2024/01/20 06:31:25;;;;;;;6.30;1.37;;;5.60;99.90;;;;;;5052460;28;20179;-73
2024/01/20 06:33:52;;;;;;;1.40;0.80;;;5.90;1.00;;;;;;5039708;28;20237;-74
2024/01/20 06:36:19;;;;;;;5.40;1.30;;;5.60;1.00;;;;;;5061207;28;20208;-74
2024/01/20 06:38:45;;;;;;;4.47;1.00;;;5.60;1.00;;;;;;5061472;28;20177;-73
2024/01/20 06:41:11;;;;;;;9.67;1.07;;;;;;;;;;5059810;28;20256;-74
2024/01/20 06:43:37;;;;;;;4.63;1.07;;;5.60;1.00;;;;;;5059078;28;20178;-74
2024/01/20 06:46:03;;;;;;;10.23;1.30;;;6.00;1.00;;;;;;5059191;28;20213;-74
2024/01/20 06:48:32;;;;;;;7.17;0.93;;;;;;;;;;5057154;28;20185;-73
2024/01/20 06:50:59;;;;;;;7.23;0.80;;;5.60;1.00;;;;;;5035416;28;20165;-73
2024/01/20 06:53:26;;;;;;;5.00;0.93;;;5.70;1.00;;;;;;5052439;28;20173;-73
2024/01/20 06:55:52;;;;;;;4.60;0.80;;;5.90;1.00;;;;;;5051528;28;20204;-73
2024/01/20 06:58:18;;;;;;;3.97;0.70;;;5.40;1.00;;;;;;5052823;28;20246;-73
2024/01/20 07:00:43;;;;;;;3.90;1.50;;;6.20;1.00;;;;;;5052103;28;20165;-73
2024/01/20 07:03:09;;;;;;;3.60;1.40;;;6.00;1.00;;;;;;5051911;28;20795;-73
2024/01/20 07:05:35;;;;;;;4.83;0.87;;;;;;;;;;5032955;28;20200;-73
2024/01/20 07:08:01;;;;;;;8.57;1.00;;;5.80;1.00;;;;;;5032175;28;20202;-73
2024/01/20 07:10:27;;;;;;;2.83;1.13;;;;;;;;;;5031989;28;20205;-73
2024/01/20 07:12:52;;;;;;;1.97;0.90;;;5.80;1.00;;;;;;5038540;28;20224;-73
2024/01/20 07:15:19;;;;;;;4.33;1.30;;;;;;;;;;5033541;28;20584;-73
2024/01/20 07:17:44;;;;;;;5.43;0.90;;;5.80;1.00;;;;;;5051680;28;20508;-74
2024/01/20 07:20:11;;;;;;;8.63;0.90;;;;;;;;;;5033865;28;20654;-73
2024/01/20 07:22:36;;;;;;;4.93;1.23;;;5.80;1.00;;;;;;5051485;28;20169;-73
2024/01/20 07:25:04;;;;;;;4.67;0.93;;;5.90;1.00;;;;;;5051529;28;20192;-73
2024/01/20 07:27:30;;;;;;;2.87;1.23;;;;;;;;;;5051205;28;20224;-73
2024/01/20 07:29:56;;;;;;;7.97;1.03;;;5.80;1.00;;;;;;5051627;28;20207;-73
2024/01/20 07:32:21;;;;;;;3.83;1.10;;;5.70;1.00;;;;;;5051643;28;20648;-73
2024/01/20 07:34:47;;;;;;;2.50;1.20;;;;;;;;;;5051355;28;20184;-74
2024/01/20 07:37:13;;;;;;;4.73;0.80;;;;;;;;;;5033429;28;20181;-74
2024/01/20 07:39:39;;;;;;;3.47;1.03;;;5.70;1.00;;;;;;5033531;28;20184;-75
2024/01/20 07:42:05;;;;;;;7.90;1.30;;;;;;;;;;5051258;28;20180;-74
2024/01/20 07:44:31;;;;;;;10.77;1.03;;;6.10;1.00;;;;;;5033600;28;20172;-76
2024/01/20 07:46:57;;;;;;;5.43;0.97;;;;;;;;;;5051139;28;20212;-73
2024/01/20 07:49:23;;;;;;;2.33;0.70;;;;;;;;;;5050431;28;20813;-74
2024/01/20 07:51:49;;;;;;;5.87;1.07;;;;;;;;;;5050473;28;20251;-73
2024/01/20 07:54:16;;;;;;;6.70;1.33;;;6.10;1.00;;;;;;5050811;28;20181;-73
2024/01/20 07:56:42;;;;;;;12.53;1.70;;;6.10;1.00;;;;;;5051150;28;20201;-74
2024/01/20 07:59:08;;;;;;;4.80;1.33;;;;;;;;;;5050670;28;20276;-75
2024/01/20 08:01:33;;;;;;;5.73;1.33;;;6.10;1.00;;;;;;5049327;28;20252;-74
2024/01/20 08:04:01;;;;;;;5.60;1.27;;;6.00;1.00;;;;;;5050770;28;20220;-73
2024/01/20 08:06:27;;;;;;;13.10;1.73;;;;;;;;;;5053957;28;20240;-73
2024/01/20 08:08:53;;;;;;;7.80;1.70;;;5.90;13.70;;;;;;5053933;28;20169;-74
2024/01/20 08:11:19;;;;;;;10.87;2.17;;;;;;;;;;5036584;28;20182;-74
2024/01/20 08:13:45;;;;;;;5.87;1.27;;;6.20;91.00;;;;;;5040089;28;20226;-73
2024/01/20 08:16:11;;;;;;;3.57;1.10;;;5.80;99.90;;;;;;5054986;28;20252;-73
2024/01/20 08:18:36;;;;;;;4.77;1.20;;;5.90;99.90;;;;;;5054327;28;20216;-73
2024/01/20 08:21:07;;;;;;;8.40;1.90;;;5.30;99.90;;;;;;5054926;28;20234;-74
2024/01/20 08:23:33;;;;;;;7.70;1.73;;;5.60;99.90;;;;;;5054535;28;20177;-73
2024/01/20 08:26:00;;;;;;;8.00;1.77;;;;;;;;;;5054781;28;20213;-74
2024/01/20 08:28:26;;;;;;;4.47;1.67;;;5.60;99.90;;;;;;5055068;28;20181;-74
2024/01/20 08:30:52;;;;;;;6.33;1.97;;;5.80;99.90;;;;;;5054618;28;20165;-73
2024/01/20 08:33:17;;;;;;;12.73;2.10;;;5.80;99.90;;;;;;5036816;28;20536;-74
2024/01/20 08:35:43;;;;;;;8.77;2.10;;;;;;;;;;5050253;28;20177;-73
2024/01/20 08:38:09;;;;;;;9.57;1.30;;;5.80;99.90;;;;;;5034822;28;20706;-73
2024/01/20 08:40:35;;;;;;;5.77;1.97;;;5.90;99.90;;;;;;5034365;28;20173;-73
2024/01/20 08:43:00;;;;;;;6.17;1.77;;;6.20;99.90;;;;;;5034821;28;20177;-73
2024/01/20 08:45:26;;;;;;;8.17;1.80;;;6.00;99.90;;;;;;5044581;28;20173;-74
2024/01/20 08:47:52;;;;;;;14.80;2.20;;;5.80;99.90;;;;;;5054303;28;20204;-73
2024/01/20 08:50:19;;;;;;;16.73;1.93;;;;;;;;;;5036693;28;20708;-74
2024/01/20 08:52:45;;;;;;;6.77;1.93;;;6.00;99.90;;;;;;5054292;28;20187;-73
2024/01/20 08:55:11;;;;;;;5.90;1.53;;;;;;;;;;5043386;28;20714;-72
2024/01/20 08:57:37;;;;;;;8.93;2.10;;;6.40;99.90;;;;;;5054152;28;20226;-73
2024/01/20 09:00:05;;;;;;;6.93;2.50;;;6.10;99.90;;;;;;5054009;28;20166;-73
2024/01/20 09:02:31;;;;;;;2.80;1.30;;;;;;;;;;5054259;28;20271;-74
2024/01/20 09:04:56;;;;;;;4.23;1.47;;;5.30;99.90;;;;;;5053958;28;20170;-73
2024/01/20 09:07:22;;;;;;;9.83;1.90;;;6.20;99.90;;;;;;5053684;28;20209;-73
2024/01/20 09:09:47;;;;;;;10.70;2.03;;;6.60;99.90;;;;;;5054127;28;20526;-73
2024/01/20 09:12:14;;;;;;;6.43;2.20;;;;;;;;;;5054040;28;20715;-73
2024/01/20 09:14:39;;;;;;;11.20;2.17;;;6.40;99.90;;;;;;5035039;28;20209;-74
2024/01/20 09:17:05;;;;;;;7.87;2.30;;;;;;;;;;5055449;28;20279;-73
2024/01/20 09:19:31;;;;;;;6.10;2.00;;;6.40;99.90;;;;;;5056214;28;20173;-73
2024/01/20 09:21:57;;;;;;;6.53;2.20;;;;;;;;;;5053656;28;20177;-73
2024/01/20 09:24:23;;;;;;;7.67;2.30;;;6.50;99.90;;;;;;5052912;28;20161;-73
2024/01/20 09:26:49;;;;;;;17.07;2.40;;;;;;;;;;5053654;28;20216;-73
2024/01/20 09:29:14;;;;;;;9.07;2.57;;;6.50;99.90;;;;;;5036240;28;20166;-73
2024/01/20 09:31:41;;;;;;;5.37;1.70;;;;;;;;;;5053758;28;20674;-74
2024/01/20 09:34:06;;;;;;;9.97;2.43;;;6.20;99.90;;;;;;5052674;28;20278;-73
2024/01/20 09:36:32;;;;;;;8.60;2.17;;;;;;;;;;5050641;28;20651;-73
2024/01/20 09:38:58;;;;;;;6.50;2.23;;;6.80;99.90;;;;;;5053830;28;20224;-73
2024/01/20 09:41:25;;;;;;;7.70;2.63;;;6.60;99.90;;;;;;5029510;28;20641;-74
2024/01/20 09:43:52;;;;;;;8.20;2.00;;;6.30;99.90;;;;;;5044193;28;20227;-74
2024/01/20 09:46:18;;;;;;;2.13;1.53;;;6.70;99.90;;;;;;5053355;28;20219;-74
2024/01/20 09:48:44;;;;;;;10.33;2.40;;;6.60;99.90;;;;;;5053339;28;20165;-73
2024/01/20 09:51:10;;;;;;;7.17;2.10;;;6.80;99.90;;;;;;5053721;28;20212;-74
2024/01/20 09:53:38;;;;;;;7.43;2.33;;;6.80;99.90;;;;;;5053547;28;20219;-73
2024/01/20 09:56:04;;;;;;;6.40;1.90;;;6.80;99.90;;;;;;5053241;28;20173;-73
2024/01/20 09:58:33;;;;;;;9.80;2.87;;;6.80;99.90;;;;;;5053662;28;20226;-73
2024/01/20 10:01:00;;;;;;;10.23;2.57;;;6.80;99.90;;;;;;5052913;28;20174;-73
2024/01/20 10:03:28;;;;;;;5.33;2.10;;;6.90;99.90;;;;;;5056792;28;20236;-74
2024/01/20 10:05:57;;;;;;;4.50;1.80;;;;;;;;;;5044306;28;20547;-74
2024/01/20 10:08:23;;;;;;;6.47;1.87;;;7.10;99.90;;;;;;5058951;28;20205;-74
2024/01/20 10:10:49;;;;;;;18.07;2.53;;;7.10;99.90;;;;;;5061843;28;20184;-74
2024/01/20 10:13:15;;;;;;;8.83;2.90;;;;;;;;;;5056463;28;20574;-74
2024/01/20 10:15:41;;;;;;;8.90;2.47;;;7.20;99.90;;;;;;5035719;28;20169;-74
2024/01/20 10:18:10;;;;;;;8.10;2.00;;;7.10;99.90;;;;;;5054520;28;20231;-74
2024/01/20 10:20:37;;;;;;;11.03;2.93;;;;;;;;;;5053708;28;20203;-74
2024/01/20 10:23:04;;;;;;;14.23;2.50;;;7.30;99.90;;;;;;5052937;28;20179;-73
2024/01/20 10:25:31;;;;;;;7.27;2.40;;;7.20;99.90;;;;;;5053353;28;20207;-75
2024/01/20 10:27:56;;;;;;;21.30;2.77;;;7.30;99.90;;;;;;5034288;28;20218;-73
2024/01/20 10:30:23;;;;;;;11.40;2.53;;;7.10;99.90;;;;;;5051661;28;20300;-73
2024/01/20 10:32:49;;;;;;;9.93;2.70;;;7.30;99.90;;;;;;5051252;28;20173;-73
2024/01/20 10:35:15;;;;;;;8.97;2.30;;;7.30;99.90;;;;;;5052223;28;20256;-73
2024/01/20 10:37:46;;;;;;;3.63;1.70;;;7.20;99.90;;;;;;5051262;28;20205;-73
2024/01/20 10:40:14;;;;;;;11.97;2.40;;;7.30;99.90;;;;;;5041708;28;20177;-73
2024/01/20 10:42:55;;;;;;;6.43;2.40;;;7.30;99.90;;;;;;5052337;28;20189;-72
2024/01/20 10:45:24;;;;;;;9.07;2.23;;;7.10;99.90;;;;;;5050816;28;20667;-72
2024/01/20 10:47:57;;;;;;;13.63;2.83;;;7.70;99.90;;;;;;5032060;28;20225;-73
2024/01/20 10:50:24;;;;;;;14.70;2.90;;;7.10;99.90;;;;;;5051728;28;20178;-72
2024/01/20 10:52:51;;;;;;;12.27;2.70;;;7.20;99.90;;;;;;5033855;28;20181;-72
2024/01/20 10:55:18;;;;;;;13.90;3.00;;;7.30;99.90;;;;;;5050618;28;20769;-72
2024/01/20 10:57:47;;;;;;;10.17;2.30;;;7.60;99.90;;;;;;5036175;28;20178;-72
2024/01/20 11:00:14;;;;;;;9.97;2.63;;;7.40;99.90;;;;;;5052181;28;20229;-73
2024/01/20 11:02:40;;;;;;;4.27;2.17;;;7.60;99.90;;;;;;5051794;28;20213;-73
2024/01/20 11:05:21;;;;;;;6.90;2.30;;;7.20;99.90;;;;;;5052083;28;20165;-73
2024/01/20 11:08:05;;;;;;;8.43;2.57;;;7.50;99.90;;;;;;5051997;28;20263;-73
2024/01/20 11:10:40;;;;;;;6.83;2.50;;;7.70;99.90;;;;;;5052067;28;20177;-73
2024/01/20 11:13:06;;;;;;;9.53;2.17;;;9.60;99.90;;;;;;5033951;28;20216;-73
2024/01/20 11:15:33;;;;;;;2.30;1.40;;;7.80;99.90;;;;;;5051954;28;20173;-73
2024/01/20 11:18:00;;;;;;;13.83;2.47;;;7.90;99.90;;;;;;5050907;28;20173;-73
2024/01/20 11:20:26;;;;;;;6.27;1.90;;;8.20;99.90;;;;;;5051573;28;20169;-72
2024/01/20 11:22:54;;;;;;;8.53;1.80;;;8.10;99.90;;;;;;5034660;28;20173;-73
2024/01/20 11:25:22;;;;;;;3.43;1.47;;;9.40;99.90;;;;;;5051048;28;20166;-73
2024/01/20 11:27:58;;;;;;;11.77;2.97;;;8.30;99.90;;;;;;5051680;28;20244;-73
2024/01/20 11:30:29;;;;;;;9.90;2.70;;;8.30;99.90;;;;;;5051162;28;20177;-73
2024/01/20 11:32:56;;;;;;;7.53;1.53;;;8.20;99.90;;;;;;5051381;28;20169;-73
2024/01/20 11:35:22;;;;;;;9.10;2.30;;;;;;;;;;5050904;28;20193;-73
2024/01/20 11:37:48;;;;;;;6.27;2.10;;;8.30;99.90;;;;;;5051446;28;20181;-74
2024/01/20 11:40:14;;;;;;;11.63;2.20;;;9.00;99.90;;;;;;5051078;28;20646;-75
2024/01/20 11:42:39;;;;;;;10.10;2.53;;;8.50;99.90;;;;;;5051388;28;20264;-73
2024/01/20 11:45:06;;;;;;;3.67;1.70;;;8.50;99.90;;;;;;5051282;28;20207;-74
2024/01/20 11:47:32;;;;;;;7.90;1.90;;;;;;;;;;5050959;28;20358;-74
2024/01/20 11:49:59;;;;;;;5.23;1.87;;;8.50;99.90;;;;;;5033819;28;20169;-74
2024/01/20 11:52:25;;;;;;;8.90;1.77;;;8.60;99.90;;;;;;5051901;28;20181;-73
2024/01/20 11:54:52;;;;;;;6.87;1.83;;;;;;;;;;5051496;28;20227;-72
2024/01/20 11:57:26;;;;;;;13.40;2.70;;;9.10;99.90;;;;;;5051210;28;20208;-74
2024/01/20 11:59:55;;;;;;;2.60;1.30;;;8.30;99.90;;;;;;5034259;28;20230;-73
2024/01/20 12:02:21;;;;;;;11.50;1.73;;;8.20;99.90;;;;;;5054758;28;20217;-73
2024/01/20 12:04:47;;;;;;;4.37;1.27;;;8.20;99.90;;;;;;5056316;28;20187;-74
2024/01/20 12:07:13;;;;;;;7.87;1.90;;;8.50;99.90;;;;;;5057751;28;20268;-74
2024/01/20 12:09:43;;;;;;;22.87;2.07;;;8.30;99.90;;;;;;5038946;28;20192;-73
2024/01/20 12:12:10;;;;;;;10.30;2.23;;;;;;;;;;5052907;28;20234;-73
2024/01/20 12:14:36;;;;;;;7.67;1.83;;;8.30;99.90;;;;;;5050564;28;20565;-73
2024/01/20 12:17:02;;;;;;;7.17;1.70;;;;;;;;;;5049985;28;20192;-73
2024/01/20 12:19:28;;;;;;;8.67;1.93;;;8.30;99.90;;;;;;5049824;28;20204;-73
2024/01/20 12:21:54;;;;;;;9.93;2.30;;;6.70;99.90;;;;;;5050057;28;20666;-73
2024/01/20 12:24:20;;;;;;;10.60;2.53;;;;;;;;;;5016498;28;20247;-73
2024/01/20 12:26:46;;;;;;;13.47;2.20;;;;;;;;;;5032989;28;20217;-73
2024/01/20 12:29:13;;;;;;;10.07;2.23;;;8.90;99.90;;;;;;5037132;28;20185;-73
2024/01/20 12:31:39;;;;;;;10.13;2.90;;;;;;;;;;5051198;28;20169;-73
2024/01/20 12:34:04;;;;;;;14.33;2.33;;;8.60;99.90;;;;;;5044032;28;20174;-73
2024/01/20 12:36:30;;;;;;;8.63;2.07;;;8.30;99.90;;;;;;5031287;28;20181;-73
2024/01/20 12:38:56;;;;;;;7.27;2.20;;;;;;;;;;5031206;28;20174;-73
2024/01/20 12:41:22;;;;;;;14.07;2.77;;;8.10;99.90;;;;;;5030964;28;20260;-73
2024/01/20 12:43:49;;;;;;;7.20;2.37;;;;;;;;;;5030937;28;20246;-73
2024/01/20 12:46:16;;;;;;;12.53;1.33;;;8.70;99.90;;;;;;5038245;28;20208;-73
2024/01/20 12:48:41;;;;;;;6.63;1.90;;;8.00;99.90;;;;;;5052406;28;20177;-74
2024/01/20 12:51:08;;;;;;;6.30;2.30;;;;;;;;;;5053132;28;20173;-74
2024/01/20 12:53:33;;;;;;;7.37;1.93;;;8.40;99.90;;;;;;5055905;28;20676;-74
2024/01/20 12:56:00;;;;;;;9.97;2.23;;;8.20;99.90;;;;;;5037920;28;20200;-73
2024/01/20 12:58:25;;;;;;;12.33;3.00;;;8.20;99.90;;;;;;5054330;28;20185;-72
2024/01/20 13:00:51;;;;;;;7.80;2.20;;;8.40;99.90;;;;;;5054475;28;20217;-74
2024/01/20 13:03:17;;;;;;;13.23;2.23;;;8.20;99.90;;;;;;5053329;28;20559;-72
2024/01/20 13:05:44;;;;;;;9.27;2.30;;;;;;;;;;5052758;28;20636;-74
2024/01/20 13:08:10;;;;;;;13.17;3.07;;;8.10;99.90;;;;;;5036373;28;20288;-73
2024/01/20 13:10:36;;;;;;;12.03;2.57;;;7.90;99.90;;;;;;5054091;28;20220;-72
2024/01/20 13:13:03;;;;;;;11.00;2.47;;;7.90;99.90;;;;;;5054214;28;20176;-73
2024/01/20 13:15:29;;;;;;;9.37;2.30;;;;;;;;;;5054380;28;20184;-73